[CAL Charter Flight] China Airlines B737-800 B-18606 NIGHT TAKE-OFF NOTO Airport 能登空港 2013.5.15




With Thunderstorm and flash of lightning – CAL’s Charter Flight from Noto to Taipei Airport.
中華航空 能登包機 夜間起飛
能登空港から中華航空チャーター便が離陸

Landing Video 着陸動画はこちら

2013.5.15 能登空港 NOTO Airport, Ishikawa, JAPAN(RJNW/NTQ)
– Flight Data –
Date: May 15, 2013
Airline: China Airlines チャイナエアライン 中華航空 (CAL/CI)
Aircraft: Boeing 737-800 “50th Anniversary Livery”
Registration No.: B-18606
Flight No.: CI7593
Origin: Noto (RJNW/NTQ)
Destination: Taipei (RCTP/TPE)
Runway: 25
Take-off: 1007Z
METAR/SPECI:
RJNW 150947Z 26009KT 210V300 9999 TS FEW015CB SCT020 BKN080 17/13 Q1013 RMK 1CB015 4CU020 7AC080 A2991 P/RR FBL TS 20KM W MOV NE
RJNW 151000Z 27006KT 240V360 5000 TSRA SCT015CB BKN020 BKN080 16/13 Q1012 RMK 3CB015 5CU020 7AC080 A2991 MOD TS OHD MOV NE P/RR

[whitewing681 YouTube Channel]
旅行・飛行機・鉄道・乗り物動画を公開中
http://www.youtube.com/user/whitewing681
[Subscribe チャンネル登録]
http://www.youtube.com/subscription_center?add_user=whitewing681
[whitewing681 YouTube Channel Blog]
http://whitewing681.blogspot.jp/

Flights

Air Charter
#<LinkAnchor:0x00000009b1cf98>” src=”https://hitleap.com/assets/banner-241ef1f2c690b6812aeeff6c0fb91f39ffc8a214c0b2c6c11d8a96f7c98b8fab.png” width=”468″ height=”60″></a></p>
<div class=